MUC | München Airways

 METAR UND TAF INFORMATION

METAR FOR EGNJ
ADDS - METARS form results

(1610 UTC 24 March 2019)
Data provider http://aviationweather.gov/metar/data/
 
METAR text: EGNJ 241550Z 27014KT 9999 SCT039 BKN048 11/02 Q1026
Conditions at: EGNJ (HUMBERSIDE , GB) observed 1550 UTC 24 March 2019
Temperature: 11.0°C (52°F)
Dewpoint: 2.0°C (36°F) [RH = 54%]
Pressure (altimeter): 30.30 inches Hg (1026.0 mb)
Winds: from the W (270 degrees) at 16 MPH (14 knots; 7.2 m/s)
Visibility: 6 or more miles (10+ km)
Ceiling: 4800 feet AGL
Clouds: scattered clouds at 3900 feet AGL
broken clouds at 4800 feet AGL
Weather: no significant weather observed at this time

METAR text: EGNJ 241520Z 26017KT 9999 SCT040 12/02 Q1026
Conditions at: EGNJ (HUMBERSIDE , GB) observed 1520 UTC 24 March 2019
Temperature: 12.0°C (54°F)
Dewpoint: 2.0°C (36°F) [RH = 50%]
Pressure (altimeter): 30.30 inches Hg (1026.0 mb)
Winds: from the W (260 degrees) at 20 MPH (17 knots; 8.7 m/s)
Visibility: 6 or more miles (10+ km)
Ceiling: at least 12,000 feet AGL
Clouds: scattered clouds at 4000 feet AGL
Weather: no significant weather observed at this time

Forecast for: EGNJ (HUMBERSIDE , GB)
Text: TAF EGNJ 241355Z 2415/2424 27015KT 9999 SCT035
Forecast period: 1500 UTC 24 March 2019 to 0000 UTC 25 March 2019
Forecast type: FROM: standard forecast or significant change
Winds: from the W (270 degrees) at 17 MPH (15 knots; 7.7 m/s)
Visibility: 6 or more miles 10+ km)
Ceiling: at least 12,000 feet AGL
Clouds: scattered clouds at 3500 feet AGL
Weather: no significant weather forecast for this period
Text: PROB40
Forecast period: 1500 UTC 24 March 2019 to 0000 UTC 25 March 2019
Forecast type: TEMPORARY: The following changes expected for less than half the time period
Winds: from the W (280 degrees) at 21 MPH (18 knots; 9.3 m/s)
gusting to 32 MPH (28 knots; 14.4 m/s)
Visibility: missing
Ceiling: unknown
Clouds: missing
Weather: no significant weather forecast for this period
Text: TEMPO 2415/2424 28018G28KT
Forecast period: 1700 to 2300 UTC 24 March 2019
Forecast type: TEMPORARY: The following changes expected for less than half the time period
Visibility: 4 miles (6 km)
Ceiling: unknown
Clouds: missing
Weather: SHRA  (rain showers)

 FLUGHAFENKARTE

 RUNWAY INFORMATION
Runway 03 Runway length 7205 ft Runway width 148 ft
Runway elevation 121 ft Runway displaced threshold 0 ft Runway heading 22
Runway 21 Runway length 7205 ft Runway width 148 ft
Runway elevation 74 ft Runway displaced threshold 806 ft Runway heading 202
Runway 09 Runway length 3458 ft Runway width 98 ft
Runway elevation 87 ft Runway displaced threshold 0 ft Runway heading 82
Runway 27 Runway length 3458 ft Runway width 98 ft
Runway elevation 85 ft Runway displaced threshold 647 ft Runway heading 262

 AIRPORT FREQUENCIES
Type APP Name APP Frequency 119.125 MHZ
Type ATIS Name INFO Frequency 124.125 MHZ
Type TWR Name TWR Frequency 124.9 MHZ

 AIRPORT NEAR NAVIGATION AIDS